createdAt,value
2018-01-31T01:53:26.637Z,101197.53
2018-01-31T01:55:54.762Z,101196.84
2018-01-31T01:58:38.620Z,101192.75
2018-01-31T02:01:06.786Z,101181.27
2018-01-31T02:03:34.886Z,101168.44
2018-01-31T02:06:03.002Z,101162.29
2018-01-31T02:08:31.106Z,101152.92
2018-01-31T02:10:59.206Z,101145.75
2018-01-31T02:13:27.329Z,101140.59
2018-01-31T02:15:55.441Z,101134.82
2018-01-31T02:18:23.555Z,101119.09
2018-01-31T02:20:51.654Z,101114.87
2018-01-31T02:23:19.766Z,101097.89
2018-01-31T02:25:47.888Z,101087.86
2018-01-31T02:28:29.940Z,101088.55
2018-01-31T02:30:58.038Z,101081.68
2018-01-31T02:33:26.150Z,101075.31
2018-01-31T02:36:09.813Z,101073.75
2018-01-31T02:38:49.697Z,101069.33
2018-01-31T02:41:17.830Z,101066.41
2018-01-31T02:43:46.069Z,101055.38
2018-01-31T02:46:14.286Z,101053.63
2018-01-31T02:48:43.430Z,101042.87
2018-01-31T02:51:11.561Z,101031.33
2018-01-31T02:53:40.590Z,101028.48
2018-01-31T02:56:08.706Z,101025.09
2018-01-31T02:58:36.824Z,101021.19
2018-01-31T03:01:04.961Z,101020.20
2018-01-31T03:03:33.064Z,101009.90
2018-01-31T03:06:01.192Z,101010.33
2018-01-31T03:08:29.301Z,100997.76
2018-01-31T03:11:08.633Z,100998.18
2018-01-31T03:13:36.748Z,100994.98
2018-01-31T03:16:04.868Z,100981.72
2018-01-31T03:18:32.996Z,100980.48
2018-01-31T03:21:01.108Z,100975.33
2018-01-31T03:23:29.252Z,100966.88
2018-01-31T03:25:57.389Z,100959.48
2018-01-31T03:28:41.799Z,100952.47
2018-01-31T03:31:09.899Z,100940.95
2018-01-31T03:33:38.002Z,100931.78
2018-01-31T03:36:06.120Z,100930.70
2018-01-31T03:38:34.222Z,100925.66
2018-01-31T03:41:02.364Z,100920.20
2018-01-31T03:43:30.504Z,100923.42
2018-01-31T03:45:58.636Z,100911.36
2018-01-31T03:48:39.287Z,100901.46
2018-01-31T03:51:07.402Z,100889.72
2018-01-31T03:53:35.528Z,100890.78
2018-01-31T03:56:03.649Z,100878.08
2018-01-31T03:58:31.750Z,100879.53
2018-01-31T04:00:59.867Z,100878.92
2018-01-31T04:03:27.982Z,100866.44
2018-01-31T04:05:56.170Z,100865.73
2018-01-31T04:08:24.279Z,100865.22
2018-01-31T04:10:52.398Z,100860.78
2018-01-31T04:13:20.521Z,100861.09
2018-01-31T04:15:48.622Z,100858.50
2018-01-31T04:18:16.734Z,100846.20
2018-01-31T04:20:44.834Z,100849.10
2018-01-31T04:23:12.939Z,100840.82
2018-01-31T04:25:52.872Z,100836.66
2018-01-31T04:28:35.678Z,100834.20
2018-01-31T04:31:03.794Z,100834.16
2018-01-31T04:33:31.899Z,100826.62
2018-01-31T04:36:00.043Z,100820.47
2018-01-31T04:38:28.152Z,100819.55
2018-01-31T04:40:56.249Z,100810.89
2018-01-31T04:43:24.356Z,100803.03
2018-01-31T04:45:52.446Z,100809.09
2018-01-31T04:48:20.581Z,100801.73
2018-01-31T04:50:48.673Z,100794.92
2018-01-31T04:53:16.766Z,100794.09
2018-01-31T04:55:44.894Z,100790.41
2018-01-31T04:58:12.984Z,100784.97
2018-01-31T05:00:41.124Z,100773.14
2018-01-31T05:03:09.216Z,100775.84
2018-01-31T05:05:48.692Z,100772.22
2018-01-31T05:08:16.809Z,100766.82
2018-01-31T05:10:44.908Z,100768.45
2018-01-31T05:13:13.018Z,100765.54
2018-01-31T05:15:42.084Z,100762.33
2018-01-31T05:18:10.183Z,100761.60
2018-01-31T05:20:38.343Z,100756.41
2018-01-31T05:23:06.412Z,100755.48
2018-01-31T05:25:34.494Z,100764.58
2018-01-31T05:28:17.950Z,100747.53
2018-01-31T05:30:46.060Z,100748.65
2018-01-31T05:33:14.264Z,100745.85
2018-01-31T05:35:42.373Z,100744.73
2018-01-31T05:38:10.485Z,100745.94
2018-01-31T05:40:38.596Z,100736.25
2018-01-31T05:43:19.961Z,100733.57
2018-01-31T05:45:48.065Z,100727.66
2018-01-31T05:48:26.712Z,100723.32
2018-01-31T05:50:54.875Z,100722.60
2018-01-31T05:55:13.640Z,100715.63
2018-01-31T05:57:41.732Z,100722.02
2018-01-31T06:00:09.856Z,100712.52
2018-01-31T06:02:37.960Z,100716.72
2018-01-31T06:05:06.060Z,100717.90
2018-01-31T06:07:34.174Z,100713.53
2018-01-31T06:10:02.285Z,100704.70
2018-01-31T06:12:30.409Z,100702.25
2018-01-31T06:14:58.498Z,100700.68
2018-01-31T06:17:26.635Z,100696.95
2018-01-31T06:19:54.739Z,100701.10
2018-01-31T06:22:40.042Z,100688.00
2018-01-31T06:25:24.112Z,100689.54
2018-01-31T06:30:35.836Z,100680.36
2018-01-31T06:33:03.936Z,100673.02
2018-01-31T06:35:32.057Z,100671.06
2018-01-31T06:38:00.169Z,100666.84
2018-01-31T06:40:28.274Z,100651.95
2018-01-31T06:42:56.389Z,100637.44
2018-01-31T06:45:24.503Z,100635.83
2018-01-31T06:47:52.602Z,100630.14
2018-01-31T06:50:20.704Z,100624.69
2018-01-31T06:52:48.828Z,100615.98
2018-01-31T06:55:17.874Z,100613.29
2018-01-31T06:57:59.514Z,100607.72
2018-01-31T07:00:27.610Z,100612.82
2018-01-31T07:02:56.718Z,100603.69
2018-01-31T07:05:24.848Z,100601.28
2018-01-31T07:07:52.942Z,100595.94
2018-01-31T07:10:21.062Z,100582.73
2018-01-31T07:12:49.158Z,100583.54
2018-01-31T07:15:17.341Z,100588.75
2018-01-31T07:17:45.439Z,100584.22
2018-01-31T07:20:13.552Z,100584.61
2018-01-31T07:22:41.679Z,100572.83
2018-01-31T07:25:09.776Z,100573.98
2018-01-31T07:27:37.935Z,100572.64
2018-01-31T07:30:24.006Z,100571.67
2018-01-31T07:32:52.157Z,100570.22
2018-01-31T07:35:20.248Z,100565.27
2018-01-31T07:37:49.286Z,100555.44
2018-01-31T07:40:17.395Z,100552.55
2018-01-31T07:42:45.490Z,100547.45
2018-01-31T07:45:13.618Z,100528.77
2018-01-31T07:47:41.736Z,100531.14
2018-01-31T07:50:09.875Z,100530.41
2018-01-31T07:52:37.984Z,100518.66
2018-01-31T07:55:06.094Z,100511.75
2018-01-31T07:57:34.209Z,100503.16
2018-01-31T08:00:02.339Z,100506.61
2018-01-31T08:02:41.103Z,100495.67
2018-01-31T08:05:09.214Z,100495.22
2018-01-31T08:07:37.317Z,100493.38
2018-01-31T08:10:05.422Z,100491.11
2018-01-31T08:12:33.524Z,100491.92
2018-01-31T08:15:01.653Z,100486.23
2018-01-31T08:17:29.748Z,100479.94
2018-01-31T08:19:57.859Z,100482.20
2018-01-31T08:22:25.967Z,100478.28
2018-01-31T08:24:54.084Z,100470.53
2018-01-31T08:27:22.190Z,100468.45
2018-01-31T08:29:59.205Z,100469.61
2018-01-31T08:32:42.525Z,100456.67
2018-01-31T08:35:10.653Z,100449.72
2018-01-31T08:37:38.742Z,100445.00
2018-01-31T08:40:06.892Z,100451.06
2018-01-31T08:42:35.004Z,100447.11
2018-01-31T08:45:03.147Z,100449.67
2018-01-31T08:47:31.264Z,100436.47
2018-01-31T08:49:59.375Z,100437.40
2018-01-31T08:52:27.492Z,100425.69
2018-01-31T08:54:55.602Z,100414.81
2018-01-31T08:57:24.655Z,100421.17
2018-01-31T08:59:52.788Z,100418.11
2018-01-31T09:02:20.892Z,100422.91
2018-01-31T09:04:49.010Z,100421.70
2018-01-31T09:07:17.134Z,100400.73
2018-01-31T09:09:45.239Z,100400.02
2018-01-31T09:12:27.853Z,100396.77
2018-01-31T09:14:56.086Z,100373.20
2018-01-31T09:17:24.191Z,100374.80
2018-01-31T09:19:52.323Z,100379.48
2018-01-31T09:22:20.433Z,100371.00
2018-01-31T09:24:48.536Z,100359.81
2018-01-31T09:27:16.630Z,100371.80
2018-01-31T09:30:01.923Z,100378.90
2018-01-31T09:32:30.053Z,100366.53
2018-01-31T09:34:58.240Z,100371.12
2018-01-31T09:37:26.348Z,100364.47
2018-01-31T09:39:54.461Z,100357.22
2018-01-31T09:42:22.583Z,100351.88
2018-01-31T09:44:50.666Z,100349.47
2018-01-31T09:47:27.996Z,100339.55
2018-01-31T09:49:56.090Z,100348.19
2018-01-31T09:52:27.009Z,100337.44
2018-01-31T09:54:52.313Z,100337.98
2018-01-31T09:57:20.403Z,100335.70
2018-01-31T09:59:48.530Z,100329.47
2018-01-31T10:02:16.650Z,100331.61
2018-01-31T10:04:44.756Z,100317.66
2018-01-31T10:07:12.854Z,100314.31
2018-01-31T10:09:40.963Z,100306.68
2018-01-31T10:12:09.072Z,100312.71
2018-01-31T10:14:37.174Z,100305.69
2018-01-31T10:17:05.277Z,100298.44
2018-01-31T10:19:33.382Z,100296.97
2018-01-31T10:22:16.388Z,100287.55
2018-01-31T10:24:44.478Z,100291.34
2018-01-31T10:27:12.570Z,100281.36
2018-01-31T10:29:56.970Z,100284.00
2018-01-31T10:32:25.133Z,100277.02
2018-01-31T10:34:53.188Z,100274.03
2018-01-31T10:37:21.307Z,100268.23
2018-01-31T10:39:49.426Z,100263.95
2018-01-31T10:42:17.549Z,100264.39
2018-01-31T10:44:45.646Z,100261.47
2018-01-31T10:47:13.754Z,100258.58
2018-01-31T10:49:41.871Z,100248.78
2018-01-31T10:52:09.972Z,100240.33
2018-01-31T10:57:28.988Z,100248.78
2018-01-31T10:59:34.263Z,100227.13
2018-01-31T11:02:13.841Z,100216.54
2018-01-31T11:04:41.934Z,100209.25
2018-01-31T11:07:10.053Z,100205.22
2018-01-31T11:09:38.161Z,100208.59
2018-01-31T11:12:06.264Z,100186.84
2018-01-31T11:14:34.369Z,100195.05
2018-01-31T11:17:02.480Z,100185.94
2018-01-31T11:19:30.566Z,100190.45
2018-01-31T11:21:58.670Z,100168.12
2018-01-31T11:24:26.840Z,100176.53
2018-01-31T11:26:54.921Z,100164.67
2018-01-31T11:29:32.928Z,100156.08
2018-01-31T11:32:01.026Z,100150.14
2018-01-31T11:34:29.130Z,100148.20
2018-01-31T11:37:14.113Z,100138.85
2018-01-31T11:39:42.228Z,100133.84
2018-01-31T11:42:10.333Z,100129.75
2018-01-31T11:44:38.453Z,100121.28
2018-01-31T11:47:06.559Z,100121.58
2018-01-31T11:49:34.654Z,100125.84
2018-01-31T11:52:02.760Z,100100.66
2018-01-31T11:54:30.880Z,100086.84
2018-01-31T11:56:58.970Z,100085.56
2018-01-31T11:59:27.074Z,100092.63
2018-01-31T12:01:55.166Z,100091.11
2018-01-31T12:04:24.209Z,100087.47
2018-01-31T12:06:52.302Z,100084.09
2018-01-31T12:09:32.040Z,100074.81
2018-01-31T12:12:00.148Z,100080.72
2018-01-31T12:14:39.781Z,100072.39
2018-01-31T12:17:09.857Z,100060.06
2018-01-31T12:19:49.900Z,100056.58
2018-01-31T12:22:24.056Z,100067.50
2018-01-31T12:25:03.989Z,100057.42
2018-01-31T12:27:43.938Z,100056.70
2018-01-31T12:30:23.918Z,100037.36
2018-01-31T12:33:03.945Z,100021.91
2018-01-31T12:35:43.712Z,100012.33
2018-01-31T12:38:24.416Z,100023.43
2018-01-31T12:41:10.512Z,100010.45
2018-01-31T12:43:38.122Z,100004.47
2018-01-31T12:46:17.988Z,100007.48
2018-01-31T12:48:57.763Z,100003.41
2018-01-31T12:51:37.491Z,100019.73
2018-01-31T12:54:17.210Z,99990.02
2018-01-31T12:56:57.105Z,100014.84
2018-01-31T12:59:36.943Z,99995.06
2018-01-31T13:02:16.668Z,99996.28
2018-01-31T13:04:56.382Z,99993.98
2018-01-31T13:10:52.686Z,99985.87
2018-01-31T13:13:32.399Z,99982.45
2018-01-31T13:16:13.041Z,99978.48
2018-01-31T13:18:52.937Z,99974.33
2018-01-31T13:21:33.617Z,99964.64
2018-01-31T13:24:13.476Z,99960.44
2018-01-31T13:26:53.212Z,99959.66
2018-01-31T13:29:31.448Z,99951.19
2018-01-31T13:32:11.331Z,99950.20
2018-01-31T13:37:59.692Z,99929.27
2018-01-31T13:40:39.424Z,99917.32
2018-01-31T13:43:19.176Z,99912.13
2018-01-31T13:45:58.902Z,99916.84
2018-01-31T13:48:38.618Z,99914.76
2018-01-31T13:51:18.368Z,99898.19
2018-01-31T13:53:58.072Z,99900.06
2018-01-31T13:56:37.737Z,99887.03
2018-01-31T13:59:17.606Z,99884.53
2018-01-31T14:01:57.446Z,99893.50
2018-01-31T14:04:37.226Z,99886.80
2018-01-31T14:10:22.737Z,99883.67
2018-01-31T14:13:02.585Z,99885.81
2018-01-31T14:15:42.344Z,99879.28
2018-01-31T14:18:22.068Z,99882.23
2018-01-31T14:21:01.925Z,99884.23
2018-01-31T14:23:41.780Z,99888.20
2018-01-31T14:26:21.603Z,99877.42
2018-01-31T14:29:01.310Z,99871.00
2018-01-31T14:31:43.450Z,99884.46
2018-01-31T14:34:23.223Z,99900.56
2018-01-31T14:36:50.788Z,99894.91
2018-01-31T14:39:18.327Z,99880.58
2018-01-31T14:41:45.878Z,99864.97
2018-01-31T14:44:13.439Z,99855.52
2018-01-31T14:46:41.011Z,99848.22
2018-01-31T14:49:08.589Z,99846.20
2018-01-31T14:51:37.079Z,99829.62
2018-01-31T14:54:04.640Z,99819.20
2018-01-31T14:56:32.236Z,99812.52
2018-01-31T14:58:59.778Z,99809.34
2018-01-31T15:04:04.352Z,99818.22
2018-01-31T15:06:31.912Z,99810.08
2018-01-31T15:08:59.479Z,99810.74
2018-01-31T15:11:27.033Z,99794.46
2018-01-31T15:13:54.581Z,99786.23
2018-01-31T15:16:22.145Z,99783.64
2018-01-31T15:18:49.706Z,99783.93
2018-01-31T15:21:17.265Z,99781.98
2018-01-31T15:23:44.846Z,99773.52
2018-01-31T15:26:12.426Z,99774.67
2018-01-31T15:28:54.251Z,99765.80
2018-01-31T15:31:21.867Z,99743.63
2018-01-31T15:33:49.420Z,99738.02
2018-01-31T15:36:16.979Z,99753.38
2018-01-31T15:38:44.530Z,99752.16
2018-01-31T15:41:22.330Z,99752.16
2018-01-31T15:43:49.881Z,99765.86
2018-01-31T15:46:17.444Z,99764.75
2018-01-31T15:48:45.013Z,99753.67
2018-01-31T15:51:12.580Z,99754.52
2018-01-31T15:53:40.149Z,99744.00
2018-01-31T15:56:07.698Z,99742.89
2018-01-31T15:58:35.303Z,99736.67
2018-01-31T16:01:02.840Z,99737.70
2018-01-31T16:03:30.400Z,99742.42
2018-01-31T16:05:59.929Z,99737.00
2018-01-31T16:08:28.419Z,99734.02
2018-01-31T16:11:13.506Z,99729.27
2018-01-31T16:13:42.071Z,99727.44
2018-01-31T16:16:09.628Z,99718.24
2018-01-31T16:18:49.486Z,99721.72
2018-01-31T16:21:26.135Z,99715.62
2018-01-31T16:23:54.248Z,99713.91
2018-01-31T16:26:22.347Z,99708.81
2018-01-31T16:29:05.371Z,99712.83
2018-01-31T16:31:45.222Z,99710.96
2018-01-31T16:34:14.287Z,99726.54
2018-01-31T16:36:54.412Z,99716.73
2018-01-31T16:42:25.095Z,99694.85
2018-01-31T16:45:07.879Z,99695.08
2018-01-31T16:47:36.012Z,99695.81
2018-01-31T16:50:15.005Z,99702.74
2018-01-31T16:55:40.187Z,99702.88
2018-01-31T16:58:31.299Z,99703.39
2018-01-31T17:01:12.463Z,99722.20
2018-01-31T17:03:55.559Z,99725.25
2018-01-31T17:06:24.639Z,99731.56
2018-01-31T17:08:52.746Z,99722.72
2018-01-31T17:11:21.812Z,99751.66
2018-01-31T17:13:49.901Z,99752.81
2018-01-31T17:16:18.023Z,99756.99
2018-01-31T17:18:46.132Z,99768.39
2018-01-31T17:21:14.206Z,99760.46
2018-01-31T17:23:53.980Z,99771.11
2018-01-31T17:26:23.773Z,99757.84
2018-01-31T17:29:01.056Z,99760.49
2018-01-31T17:31:29.149Z,99757.37
2018-01-31T17:33:57.267Z,99751.91
2018-01-31T17:36:25.368Z,99753.15
2018-01-31T17:38:53.456Z,99746.98
2018-01-31T17:41:21.552Z,99741.53
2018-01-31T17:43:49.681Z,99747.16
2018-01-31T17:46:17.771Z,99750.22
2018-01-31T17:48:45.877Z,99751.91
2018-01-31T17:51:13.988Z,99751.70
2018-01-31T17:53:42.089Z,99753.44
2018-01-31T17:56:19.764Z,99757.65
2018-01-31T17:58:47.859Z,99745.08
2018-01-31T18:01:15.969Z,99730.83
2018-01-31T18:03:44.067Z,99724.88
2018-01-31T18:06:12.170Z,99713.08
2018-01-31T18:08:40.298Z,99710.56
2018-01-31T18:11:08.418Z,99707.27
2018-01-31T18:13:36.511Z,99693.81
2018-01-31T18:16:04.620Z,99681.35
2018-01-31T18:18:32.710Z,99698.88
2018-01-31T18:21:00.801Z,99700.65
2018-01-31T18:23:28.882Z,99697.34
2018-01-31T18:25:57.033Z,99697.88
2018-01-31T18:28:35.282Z,99698.95
2018-01-31T18:31:04.364Z,99692.09
2018-01-31T18:33:32.456Z,99692.06
2018-01-31T18:36:14.715Z,99682.20
2018-01-31T18:38:42.913Z,99689.83
2018-01-31T18:41:11.004Z,99689.66
2018-01-31T18:43:39.087Z,99698.28
2018-01-31T18:46:07.166Z,99698.52
2018-01-31T18:48:36.192Z,99694.16
2018-01-31T18:51:04.282Z,99699.11
2018-01-31T18:53:32.388Z,99704.16
2018-01-31T18:56:01.410Z,99702.77
2018-01-31T18:58:29.529Z,99696.84
2018-01-31T19:00:57.620Z,99700.73
2018-01-31T19:03:25.712Z,99707.30
2018-01-31T19:05:53.859Z,99701.80
2018-01-31T19:08:22.027Z,99715.20
2018-01-31T19:11:03.585Z,99720.77
2018-01-31T19:13:31.744Z,99726.73
2018-01-31T19:15:59.831Z,99726.61
2018-01-31T19:18:27.919Z,99727.11
2018-01-31T19:20:56.018Z,99722.87
2018-01-31T19:23:25.071Z,99718.41
2018-01-31T19:25:53.168Z,99712.60
2018-01-31T19:28:37.067Z,99704.78
2018-01-31T19:31:05.147Z,99706.31
2018-01-31T19:33:33.248Z,99697.83
2018-01-31T19:36:10.851Z,99702.59
2018-01-31T19:38:52.186Z,99694.89
2018-01-31T19:41:20.296Z,99690.57
2018-01-31T19:44:00.644Z,99697.11
2018-01-31T19:46:43.512Z,99697.03
2018-01-31T19:49:11.660Z,99700.50
2018-01-31T19:51:39.794Z,99702.76
2018-01-31T19:54:07.907Z,99697.91
2018-01-31T19:56:36.213Z,99696.57
2018-01-31T19:59:05.381Z,99697.34
2018-01-31T20:01:33.445Z,99689.73
2018-01-31T20:04:01.559Z,99687.98
2018-01-31T20:06:30.589Z,99701.38
2018-01-31T20:08:59.661Z,99700.12
2018-01-31T20:11:27.752Z,99688.98
2018-01-31T20:13:55.874Z,99686.61
2018-01-31T20:16:24.907Z,99676.73
2018-01-31T20:18:52.995Z,99689.70
2018-01-31T20:21:21.204Z,99684.90
2018-01-31T20:24:04.685Z,99685.77
2018-01-31T20:26:32.786Z,99682.95
2018-01-31T20:29:12.084Z,99689.86
2018-01-31T20:31:40.200Z,99686.88
2018-01-31T20:34:08.287Z,99676.88
2018-01-31T20:36:37.341Z,99667.58
2018-01-31T20:39:05.432Z,99667.95
2018-01-31T20:41:33.530Z,99674.17
2018-01-31T20:44:01.622Z,99668.22
2018-01-31T20:46:29.741Z,99659.48
2018-01-31T20:48:57.873Z,99667.72
2018-01-31T20:51:25.963Z,99670.73
2018-01-31T20:53:54.068Z,99672.19
2018-01-31T20:56:22.158Z,99668.03
2018-01-31T20:58:50.276Z,99674.52
2018-01-31T21:01:28.940Z,99674.25
2018-01-31T21:03:57.075Z,99683.86
2018-01-31T21:06:25.176Z,99674.37
2018-01-31T21:08:53.295Z,99680.36
2018-01-31T21:11:21.404Z,99669.94
2018-01-31T21:13:49.505Z,99672.57
2018-01-31T21:16:18.570Z,99674.14
2018-01-31T21:18:55.564Z,99661.50
2018-01-31T21:21:37.673Z,99669.70
2018-01-31T21:24:05.754Z,99676.34
2018-01-31T21:26:33.853Z,99677.14
2018-01-31T21:29:17.388Z,99685.80
2018-01-31T21:31:45.505Z,99681.88
2018-01-31T21:34:13.823Z,99672.98
2018-01-31T21:36:56.636Z,99672.80
2018-01-31T21:39:24.707Z,99666.84
2018-01-31T21:41:52.804Z,99676.05
2018-01-31T21:44:20.917Z,99671.54
2018-01-31T21:46:49.021Z,99670.73
2018-01-31T21:49:17.128Z,99680.51
2018-01-31T21:51:57.086Z,99687.25
2018-01-31T21:54:25.201Z,99682.45
2018-01-31T21:56:53.296Z,99670.08
2018-01-31T21:59:22.359Z,99665.77
2018-01-31T22:01:50.446Z,99648.34
2018-01-31T22:04:18.572Z,99634.42
2018-01-31T22:06:46.676Z,99645.91
2018-01-31T22:09:14.763Z,99638.58
2018-01-31T22:11:42.876Z,99653.16
2018-01-31T22:14:27.611Z,99658.45
2018-01-31T22:16:55.715Z,99652.77
2018-01-31T22:19:23.836Z,99656.81
2018-01-31T22:21:51.936Z,99658.14
2018-01-31T22:24:21.048Z,99656.39
2018-01-31T22:26:50.074Z,99658.83
2018-01-31T22:29:28.806Z,99658.14
2018-01-31T22:31:56.886Z,99670.15
2018-01-31T22:34:24.986Z,99673.31
2018-01-31T22:36:53.105Z,99679.34
2018-01-31T22:39:21.194Z,99671.52
2018-01-31T22:41:49.304Z,99674.19
2018-01-31T22:44:29.384Z,99662.67
2018-01-31T22:46:57.497Z,99655.94
2018-01-31T22:49:25.602Z,99672.13
2018-01-31T22:51:53.705Z,99664.38
2018-01-31T22:54:21.799Z,99661.09
2018-01-31T22:56:49.908Z,99665.81
2018-01-31T22:59:18.007Z,99669.28
2018-01-31T23:01:46.112Z,99670.20
2018-01-31T23:04:14.210Z,99675.48
2018-01-31T23:06:42.330Z,99680.89
2018-01-31T23:09:10.433Z,99680.71
2018-01-31T23:11:43.466Z,99681.66
2018-01-31T23:14:17.054Z,99682.16
2018-01-31T23:16:55.852Z,99684.52
2018-01-31T23:19:23.957Z,99683.71
2018-01-31T23:21:52.050Z,99670.17
2018-01-31T23:24:20.219Z,99668.62
2018-01-31T23:26:48.272Z,99672.59
2018-01-31T23:29:31.874Z,99675.18
2018-01-31T23:31:59.973Z,99672.62
2018-01-31T23:34:28.062Z,99677.57
2018-01-31T23:37:11.569Z,99675.20
2018-01-31T23:39:39.667Z,99676.34
2018-01-31T23:42:08.748Z,99674.09
2018-01-31T23:44:36.848Z,99683.96
2018-01-31T23:47:04.976Z,99678.53
2018-01-31T23:49:49.681Z,99682.97
2018-01-31T23:52:18.737Z,99682.97
2018-01-31T23:54:46.841Z,99684.61
2018-01-31T23:57:15.879Z,99680.14
2018-01-31T23:59:44.021Z,99672.88
